Hydrus — WDJ3145 — position and weather

sailwx.info

Track history (hours):
 
Tides and Currents Weather Stations Pressure Air Temp Water Temp Dewpoint Dewpoint Depression Visibility Wind Speed Wind Dir Waves Ship Positions

Hydrus

Owner: San Francisco Bay Area Water Emergency Transportation Authority, San Francisco, CA. More information available from US FCC via Universal Licensing System and Coast Guard Vessel Documentation Center.

Last reported at 2017-Oct-18 20:30 UTC. Time now 2017-Oct-18 20:36 UTC.
Position N 37°48' W 122°17'.

Length 41 m; draft 2 m.

Type: Passenger vessel. MMSI: 367765240.

Date/timePositionNaut miles runAvg speedWind from/ knotsBaromVisibWave heightAir tempDewpointWater temp
2017-Oct-18 20:30N 37°48' W 122°17'510.4
2017-Oct-18 20:00N 37°48' W 122°23'1 2.9
2017-Oct-18 19:31N 37°49' W 122°25'611.2
2017-Oct-18 19:01N 37°48' W 122°18'1 2.5
2017-Oct-18 18:31N 37°48' W 122°19'4 8.6
2017-Oct-18 18:00N 37°49' W 122°25'1 1.8
2017-Oct-18 17:30N 37°48' W 122°24'0 0.0
2017-Oct-18 17:00N 37°48' W 122°24'0 0.0
2017-Oct-18 16:30N 37°48' W 122°24'4 7.4
2017-Oct-18 16:00N 37°48' W 122°19'1 2.1
2017-Oct-18 15:31N 37°48' W 122°18'3 5.1
2017-Oct-18 15:01N 37°48' W 122°21'2 1.9
2017-Oct-18 14:01N 37°48' W 122°23'510.4
2017-Oct-18 13:30N 37°48' W 122°17'5 9.5
2017-Oct-18 13:00N 37°48' W 122°23'1 0.1
2017-Oct-18 05:32N 37°48' W 122°24'0 0.0
2017-Oct-18 05:30N 37°48' W 122°24'611.2
2017-Oct-18 05:00N 37°48' W 122°17'510.6
2017-Oct-18 04:30N 37°48' W 122°24'0 0.0
2017-Oct-18 04:00N 37°48' W 122°24'0 0.0
2017-Oct-18 03:30N 37°48' W 122°24'0 0.0
2017-Oct-18 03:00N 37°48' W 122°24'510.6
2017-Oct-18 02:30N 37°48' W 122°17'4 8.4
2017-Oct-18 02:01N 37°48' W 122°22'3 6.3
2017-Oct-18 01:31N 37°48' W 122°18'0 0.6
2017-Oct-18 01:01N 37°48' W 122°18'3 6.1
2017-Oct-18 00:31N 37°48' W 122°22'4 7.4
2017-Oct-18 00:00N 37°47' W 122°18'5 9.3
2017-Oct-17 23:31N 37°48' W 122°24'4 8.9
2017-Oct-17 23:01N 37°48' W 122°18'0 0.8
2017-Oct-17 22:31N 37°48' W 122°18'5 9.5
2017-Oct-17 22:01N 37°49' W 122°24'1 1.3
2017-Oct-17 21:30N 37°49' W 122°25'0 0.0
2017-Oct-17 21:00N 37°49' W 122°25'0 0.0
2017-Oct-17 20:30N 37°49' W 122°25'0 0.0
2017-Oct-17 20:00N 37°49' W 122°25'1 2.5
2017-Oct-17 19:31N 37°48' W 122°23'5 9.6
2017-Oct-17 19:00N 37°48' W 122°17'1 2.9
2017-Oct-17 18:31N 37°48' W 122°19'5 9.1
2017-Oct-17 18:00N 37°49' W 122°25'0 0.0
2017-Oct-17 17:30N 37°49' W 122°25'0 0.0
2017-Oct-17 17:00N 37°49' W 122°25'1 2.4
2017-Oct-17 16:30N 37°48' W 122°23'4 8.9
2017-Oct-17 16:00N 37°47' W 122°18'2 3.5
2017-Oct-17 15:31N 37°48' W 122°20'1 1.2
2017-Oct-17 15:00N 37°48' W 122°19'1 2.6
2017-Oct-17 14:30N 37°48' W 122°18'4 7.9
2017-Oct-17 14:01N 37°48' W 122°23'5 9.0
2017-Oct-17 13:30N 37°48' W 122°17'4 7.7
2017-Oct-17 13:00N 37°48' W 122°22'3 5.1
2017-Oct-17 12:30N 37°49' W 122°25'0 0.0
2017-Oct-17 03:58N 37°49' W 122°25'1 2.9
2017-Oct-17 03:31N 37°48' W 122°24'510.4
2017-Oct-17 03:00N 37°48' W 122°17'510.4
2017-Oct-17 02:31N 37°48' W 122°24'510.5
2017-Oct-17 02:00N 37°48' W 122°17'510.5
2017-Oct-17 01:30N 37°48' W 122°24'510.6
2017-Oct-17 01:01N 37°48' W 122°17'3 5.4
2017-Oct-17 00:31N 37°48' W 122°20'3 5.2
2017-Oct-17 00:01N 37°48' W 122°24'1 1.7
2017-Oct-16 23:31N 37°48' W 122°22'4 7.6
2017-Oct-16 23:00N 37°47' W 122°18'611.4
2017-Oct-16 22:30N 37°49' W 122°25'0 0.0
2017-Oct-16 22:01N 37°49' W 122°25'0 0.0
2017-Oct-16 21:30N 37°49' W 122°25'4 8.5
2017-Oct-16 21:01N 37°48' W 122°19'1 2.9
2017-Oct-16 20:30N 37°47' W 122°18'5 9.2
2017-Oct-16 20:01N 37°48' W 122°23'1 2.2
2017-Oct-16 19:30N 37°49' W 122°25'0 0.0
2017-Oct-16 19:00N 37°49' W 122°25'1 2.6
2017-Oct-16 18:30N 37°48' W 122°23'510.5
2017-Oct-16 18:00N 37°48' W 122°17'510.6
2017-Oct-16 17:31N 37°48' W 122°24'0 0.2
2017-Oct-16 17:01N 37°48' W 122°23'5 9.0
2017-Oct-16 16:30N 37°47' W 122°18'3 6.7
2017-Oct-16 16:01N 37°48' W 122°22'3 6.4
2017-Oct-16 15:31N 37°48' W 122°18'2 4.5
2017-Oct-16 15:01N 37°48' W 122°21'2 3.1
2017-Oct-16 14:31N 37°48' W 122°23'1 0.8
2017-Oct-16 13:31N 37°48' W 122°22'3 6.4
2017-Oct-16 13:00N 37°47' W 122°18'2 3.4
2017-Oct-16 12:31N 37°48' W 122°20'4 7.9
2017-Oct-16 12:00N 37°49' W 122°25'0 0.0
2017-Oct-16 02:45N 37°49' W 122°25'1 2.7
2017-Oct-16 02:30N 37°49' W 122°24'611.4
2017-Oct-16 02:00N 37°48' W 122°17'1 1.9
2017-Oct-16 01:30N 37°47' W 122°18'510.9
2017-Oct-16 01:01N 37°49' W 122°25'0 0.0
2017-Oct-16 00:30N 37°49' W 122°25'0 0.4
2017-Oct-16 00:01N 37°49' W 122°25'3 5.6
2017-Oct-15 23:30N 37°48' W 122°22'4 7.0
2017-Oct-15 23:00N 37°48' W 122°17'510.0
2017-Oct-15 22:30N 37°48' W 122°24'1 2.6
2017-Oct-15 22:00N 37°49' W 122°25'0 0.0
2017-Oct-15 21:31N 37°49' W 122°25'1 2.7
2017-Oct-15 21:01N 37°48' W 122°23'510.2
2017-Oct-15 20:30N 37°48' W 122°17'3 6.4
2017-Oct-15 20:00N 37°48' W 122°21'3 6.4
2017-Oct-15 19:30N 37°49' W 122°25'4 7.8
2017-Oct-15 19:01N 37°48' W 122°20'2 4.7
2017-Oct-15 18:30N 37°48' W 122°17'510.3
2017-Oct-15 18:00N 37°48' W 122°24'1 2.6
2017-Oct-15 17:30N 37°49' W 122°25'0 0.0
2017-Oct-15 17:00N 37°49' W 122°25'0 0.0
2017-Oct-15 02:53N 37°49' W 122°25'1 3.4
2017-Oct-15 02:30N 37°48' W 122°24'510.6
2017-Oct-15 02:00N 37°48' W 122°17'1 2.5
2017-Oct-15 01:31N 37°48' W 122°18'510.3
2017-Oct-15 01:01N 37°49' W 122°25'0 0.0
2017-Oct-15 00:30N 37°49' W 122°25'0 0.3
2017-Oct-15 00:00N 37°49' W 122°25'3 5.9
2017-Oct-14 23:31N 37°48' W 122°21'3 6.0
2017-Oct-14 23:00N 37°48' W 122°18'5 9.4
2017-Oct-14 22:30N 37°48' W 122°24'1 2.6
2017-Oct-14 22:00N 37°49' W 122°25'0 0.0
2017-Oct-14 21:30N 37°49' W 122°25'1 2.7
2017-Oct-14 21:01N 37°48' W 122°23'510.4
2017-Oct-14 20:30N 37°48' W 122°17'2 4.7
2017-Oct-14 20:01N 37°48' W 122°20'4 8.1
2017-Oct-14 19:30N 37°49' W 122°25'3 6.4
2017-Oct-14 19:00N 37°48' W 122°21'3 5.9
2017-Oct-14 18:30N 37°48' W 122°17'510.1
2017-Oct-14 18:00N 37°48' W 122°24'1 2.6
2017-Oct-14 17:30N 37°49' W 122°25'1 1.8
2017-Oct-14 17:00N 37°48' W 122°24'0 0.0
2017-Oct-14 16:30N 37°48' W 122°24'0 0.1
2017-Oct-14 16:00N 37°48' W 122°24'0 0.0
2017-Oct-13 22:09N 37°48' W 122°24'0 0.0
2017-Oct-13 22:00N 37°48' W 122°24'510.2
2017-Oct-13 21:31N 37°53' W 122°26'1122.7
2017-Oct-13 21:01N 38°03' W 122°19'4 1.5
2017-Oct-13 18:18N 38°07' W 122°17'0 0.0
2017-Oct-13 17:59N 38°07' W 122°17'  
2017-Oct-09 18:02N 38°05' W 122°15'010.2
2017-Oct-09 18:00N 38°05' W 122°15'815.3
2017-Oct-09 17:30N 38°01' W 122°23'1021.2
2017-Oct-09 17:01N 37°50' W 122°24'2 4.5
2017-Oct-09 16:30N 37°48' W 122°24'4 7.2
2017-Oct-09 16:01N 37°48' W 122°19'1 2.6
2017-Oct-09 15:31N 37°48' W 122°18'3 6.0
2017-Oct-09 15:00N 37°48' W 122°21'4 7.2
2017-Oct-09 14:30N 37°48' W 122°17'5 9.9
2017-Oct-09 14:01N 37°48' W 122°23'510.0
2017-Oct-09 13:31N 37°48' W 122°17'510.9
2017-Oct-09 13:01N 37°48' W 122°24'0 0.0
2017-Oct-09 04:08N 37°48' W 122°24'0 0.0
2017-Oct-09 04:00N 37°48' W 122°24'1 1.7
2017-Oct-09 03:30N 37°49' W 122°25'2 3.6
2017-Oct-09 03:01N 37°48' W 122°23'4 9.0
2017-Oct-09 02:30N 37°48' W 122°17'4 8.4
2017-Oct-09 02:01N 37°48' W 122°22'2 4.4
2017-Oct-09 01:30N 37°49' W 122°25'2 3.2
2017-Oct-09 01:01N 37°48' W 122°23'5 9.4
2017-Oct-09 00:31N 37°48' W 122°17'3 6.5
2017-Oct-09 00:01N 37°48' W 122°21'3 6.2
2017-Oct-08 23:30N 37°49' W 122°25'1 2.2
2017-Oct-08 23:00N 37°48' W 122°23'510.2
2017-Oct-08 22:30N 37°48' W 122°17'2 4.3
2017-Oct-08 22:01N 37°48' W 122°20'4 8.0
2017-Oct-08 21:30N 37°49' W 122°25'1 2.7
2017-Oct-08 21:00N 37°48' W 122°23'  
Track history (hours):
 
Tides and Currents Weather Stations Pressure Air Temp Water Temp Dewpoint Dewpoint Depression Visibility Wind Speed Wind Dir Waves Ship Positions

Hydrus

Owner: San Francisco Bay Area Water Emergency Transportation Authority, San Francisco, CA. More information available from US FCC via Universal Licensing System and Coast Guard Vessel Documentation Center.

Last reported at 2017-Oct-18 20:30 UTC. Time now 2017-Oct-18 20:36 UTC.
Position N 37°48' W 122°17'.

Length 41 m; draft 2 m.

Type: Passenger vessel. MMSI: 367765240.

Date/timePositionNaut miles runAvg speedWind from/ knotsBaromVisibWave heightAir tempDewpointWater temp
2017-Oct-18 20:30N 37°48' W 122°17'510.4
2017-Oct-18 20:00N 37°48' W 122°23'1 2.9
2017-Oct-18 19:31N 37°49' W 122°25'611.2
2017-Oct-18 19:01N 37°48' W 122°18'1 2.5
2017-Oct-18 18:31N 37°48' W 122°19'4 8.6
2017-Oct-18 18:00N 37°49' W 122°25'1 1.8
2017-Oct-18 17:30N 37°48' W 122°24'0 0.0
2017-Oct-18 17:00N 37°48' W 122°24'0 0.0
2017-Oct-18 16:30N 37°48' W 122°24'4 7.4
2017-Oct-18 16:00N 37°48' W 122°19'1 2.1
2017-Oct-18 15:31N 37°48' W 122°18'3 5.1
2017-Oct-18 15:01N 37°48' W 122°21'2 1.9
2017-Oct-18 14:01N 37°48' W 122°23'510.4
2017-Oct-18 13:30N 37°48' W 122°17'5 9.5
2017-Oct-18 13:00N 37°48' W 122°23'1 0.1
2017-Oct-18 05:32N 37°48' W 122°24'0 0.0
2017-Oct-18 05:30N 37°48' W 122°24'611.2
2017-Oct-18 05:00N 37°48' W 122°17'510.6
2017-Oct-18 04:30N 37°48' W 122°24'0 0.0
2017-Oct-18 04:00N 37°48' W 122°24'0 0.0
2017-Oct-18 03:30N 37°48' W 122°24'0 0.0
2017-Oct-18 03:00N 37°48' W 122°24'510.6
2017-Oct-18 02:30N 37°48' W 122°17'4 8.4
2017-Oct-18 02:01N 37°48' W 122°22'3 6.3
2017-Oct-18 01:31N 37°48' W 122°18'0 0.6
2017-Oct-18 01:01N 37°48' W 122°18'3 6.1
2017-Oct-18 00:31N 37°48' W 122°22'4 7.4
2017-Oct-18 00:00N 37°47' W 122°18'5 9.3
2017-Oct-17 23:31N 37°48' W 122°24'4 8.9
2017-Oct-17 23:01N 37°48' W 122°18'0 0.8
2017-Oct-17 22:31N 37°48' W 122°18'5 9.5
2017-Oct-17 22:01N 37°49' W 122°24'1 1.3
2017-Oct-17 21:30N 37°49' W 122°25'0 0.0
2017-Oct-17 21:00N 37°49' W 122°25'0 0.0
2017-Oct-17 20:30N 37°49' W 122°25'0 0.0
2017-Oct-17 20:00N 37°49' W 122°25'1 2.5
2017-Oct-17 19:31N 37°48' W 122°23'5 9.6
2017-Oct-17 19:00N 37°48' W 122°17'1 2.9
2017-Oct-17 18:31N 37°48' W 122°19'5 9.1
2017-Oct-17 18:00N 37°49' W 122°25'0 0.0
2017-Oct-17 17:30N 37°49' W 122°25'0 0.0
2017-Oct-17 17:00N 37°49' W 122°25'1 2.4
2017-Oct-17 16:30N 37°48' W 122°23'4 8.9
2017-Oct-17 16:00N 37°47' W 122°18'2 3.5
2017-Oct-17 15:31N 37°48' W 122°20'1 1.2
2017-Oct-17 15:00N 37°48' W 122°19'1 2.6
2017-Oct-17 14:30N 37°48' W 122°18'4 7.9
2017-Oct-17 14:01N 37°48' W 122°23'5 9.0
2017-Oct-17 13:30N 37°48' W 122°17'4 7.7
2017-Oct-17 13:00N 37°48' W 122°22'3 5.1
2017-Oct-17 12:30N 37°49' W 122°25'0 0.0
2017-Oct-17 03:58N 37°49' W 122°25'1 2.9
2017-Oct-17 03:31N 37°48' W 122°24'510.4
2017-Oct-17 03:00N 37°48' W 122°17'510.4
2017-Oct-17 02:31N 37°48' W 122°24'510.5
2017-Oct-17 02:00N 37°48' W 122°17'510.5
2017-Oct-17 01:30N 37°48' W 122°24'510.6
2017-Oct-17 01:01N 37°48' W 122°17'3 5.4
2017-Oct-17 00:31N 37°48' W 122°20'3 5.2
2017-Oct-17 00:01N 37°48' W 122°24'1 1.7
2017-Oct-16 23:31N 37°48' W 122°22'4 7.6
2017-Oct-16 23:00N 37°47' W 122°18'611.4
2017-Oct-16 22:30N 37°49' W 122°25'0 0.0
2017-Oct-16 22:01N 37°49' W 122°25'0 0.0
2017-Oct-16 21:30N 37°49' W 122°25'4 8.5
2017-Oct-16 21:01N 37°48' W 122°19'1 2.9
2017-Oct-16 20:30N 37°47' W 122°18'5 9.2
2017-Oct-16 20:01N 37°48' W 122°23'1 2.2
2017-Oct-16 19:30N 37°49' W 122°25'0 0.0
2017-Oct-16 19:00N 37°49' W 122°25'1 2.6
2017-Oct-16 18:30N 37°48' W 122°23'510.5
2017-Oct-16 18:00N 37°48' W 122°17'510.6
2017-Oct-16 17:31N 37°48' W 122°24'0 0.2
2017-Oct-16 17:01N 37°48' W 122°23'5 9.0
2017-Oct-16 16:30N 37°47' W 122°18'3 6.7
2017-Oct-16 16:01N 37°48' W 122°22'3 6.4
2017-Oct-16 15:31N 37°48' W 122°18'2 4.5
2017-Oct-16 15:01N 37°48' W 122°21'2 3.1
2017-Oct-16 14:31N 37°48' W 122°23'1 0.8
2017-Oct-16 13:31N 37°48' W 122°22'3 6.4
2017-Oct-16 13:00N 37°47' W 122°18'2 3.4
2017-Oct-16 12:31N 37°48' W 122°20'4 7.9
2017-Oct-16 12:00N 37°49' W 122°25'0 0.0
2017-Oct-16 02:45N 37°49' W 122°25'1 2.7
2017-Oct-16 02:30N 37°49' W 122°24'611.4
2017-Oct-16 02:00N 37°48' W 122°17'1 1.9
2017-Oct-16 01:30N 37°47' W 122°18'510.9
2017-Oct-16 01:01N 37°49' W 122°25'0 0.0
2017-Oct-16 00:30N 37°49' W 122°25'0 0.4
2017-Oct-16 00:01N 37°49' W 122°25'3 5.6
2017-Oct-15 23:30N 37°48' W 122°22'4 7.0
2017-Oct-15 23:00N 37°48' W 122°17'510.0
2017-Oct-15 22:30N 37°48' W 122°24'1 2.6
2017-Oct-15 22:00N 37°49' W 122°25'0 0.0
2017-Oct-15 21:31N 37°49' W 122°25'1 2.7
2017-Oct-15 21:01N 37°48' W 122°23'510.2
2017-Oct-15 20:30N 37°48' W 122°17'3 6.4
2017-Oct-15 20:00N 37°48' W 122°21'3 6.4
2017-Oct-15 19:30N 37°49' W 122°25'4 7.8
2017-Oct-15 19:01N 37°48' W 122°20'2 4.7
2017-Oct-15 18:30N 37°48' W 122°17'510.3
2017-Oct-15 18:00N 37°48' W 122°24'1 2.6
2017-Oct-15 17:30N 37°49' W 122°25'0 0.0
2017-Oct-15 17:00N 37°49' W 122°25'0 0.0
2017-Oct-15 02:53N 37°49' W 122°25'1 3.4
2017-Oct-15 02:30N 37°48' W 122°24'510.6
2017-Oct-15 02:00N 37°48' W 122°17'1 2.5
2017-Oct-15 01:31N 37°48' W 122°18'510.3
2017-Oct-15 01:01N 37°49' W 122°25'0 0.0
2017-Oct-15 00:30N 37°49' W 122°25'0 0.3
2017-Oct-15 00:00N 37°49' W 122°25'3 5.9
2017-Oct-14 23:31N 37°48' W 122°21'3 6.0
2017-Oct-14 23:00N 37°48' W 122°18'5 9.4
2017-Oct-14 22:30N 37°48' W 122°24'1 2.6
2017-Oct-14 22:00N 37°49' W 122°25'0 0.0
2017-Oct-14 21:30N 37°49' W 122°25'1 2.7
2017-Oct-14 21:01N 37°48' W 122°23'510.4
2017-Oct-14 20:30N 37°48' W 122°17'2 4.7
2017-Oct-14 20:01N 37°48' W 122°20'4 8.1
2017-Oct-14 19:30N 37°49' W 122°25'3 6.4
2017-Oct-14 19:00N 37°48' W 122°21'3 5.9
2017-Oct-14 18:30N 37°48' W 122°17'510.1
2017-Oct-14 18:00N 37°48' W 122°24'1 2.6
2017-Oct-14 17:30N 37°49' W 122°25'1 1.8
2017-Oct-14 17:00N 37°48' W 122°24'0 0.0
2017-Oct-14 16:30N 37°48' W 122°24'0 0.1
2017-Oct-14 16:00N 37°48' W 122°24'0 0.0
2017-Oct-13 22:09N 37°48' W 122°24'0 0.0
2017-Oct-13 22:00N 37°48' W 122°24'510.2
2017-Oct-13 21:31N 37°53' W 122°26'1122.7
2017-Oct-13 21:01N 38°03' W 122°19'4 1.5
2017-Oct-13 18:18N 38°07' W 122°17'0 0.0
2017-Oct-13 17:59N 38°07' W 122°17'  
2017-Oct-09 18:02N 38°05' W 122°15'010.2
2017-Oct-09 18:00N 38°05' W 122°15'815.3
2017-Oct-09 17:30N 38°01' W 122°23'1021.2
2017-Oct-09 17:01N 37°50' W 122°24'2 4.5
2017-Oct-09 16:30N 37°48' W 122°24'4 7.2
2017-Oct-09 16:01N 37°48' W 122°19'1 2.6
2017-Oct-09 15:31N 37°48' W 122°18'3 6.0
2017-Oct-09 15:00N 37°48' W 122°21'4 7.2
2017-Oct-09 14:30N 37°48' W 122°17'5 9.9
2017-Oct-09 14:01N 37°48' W 122°23'510.0
2017-Oct-09 13:31N 37°48' W 122°17'510.9
2017-Oct-09 13:01N 37°48' W 122°24'0 0.0
2017-Oct-09 04:08N 37°48' W 122°24'0 0.0
2017-Oct-09 04:00N 37°48' W 122°24'1 1.7
2017-Oct-09 03:30N 37°49' W 122°25'2 3.6
2017-Oct-09 03:01N 37°48' W 122°23'4 9.0
2017-Oct-09 02:30N 37°48' W 122°17'4 8.4
2017-Oct-09 02:01N 37°48' W 122°22'2 4.4
2017-Oct-09 01:30N 37°49' W 122°25'2 3.2
2017-Oct-09 01:01N 37°48' W 122°23'5 9.4
2017-Oct-09 00:31N 37°48' W 122°17'3 6.5
2017-Oct-09 00:01N 37°48' W 122°21'3 6.2
2017-Oct-08 23:30N 37°49' W 122°25'1 2.2
2017-Oct-08 23:00N 37°48' W 122°23'510.2
2017-Oct-08 22:30N 37°48' W 122°17'2 4.3
2017-Oct-08 22:01N 37°48' W 122°20'4 8.0
2017-Oct-08 21:30N 37°49' W 122°25'1 2.7
2017-Oct-08 21:00N 37°48' W 122°23'  

Dump ship's entire track history